createdAt,value
2023-05-12T00:00:19.346Z,50.90
2023-05-12T00:01:19.499Z,43.80
2023-05-12T00:02:19.842Z,47.50
2023-05-12T00:03:20.202Z,44.50
2023-05-12T00:04:20.489Z,54.60
2023-05-12T00:05:20.757Z,54.20
2023-05-12T00:06:21.094Z,49.50
2023-05-12T00:07:21.378Z,45.80
2023-05-12T00:08:21.773Z,51.70
2023-05-12T00:09:21.994Z,51.80
2023-05-12T00:10:22.351Z,50.30
2023-05-12T00:11:22.613Z,44.70
2023-05-12T00:12:22.894Z,50.10
2023-05-12T00:13:23.483Z,52.60
2023-05-12T00:14:23.556Z,56.60
2023-05-12T00:15:23.856Z,50.90
2023-05-12T00:16:24.234Z,51.60
2023-05-12T00:17:24.473Z,50.40
2023-05-12T00:18:24.819Z,46.60
2023-05-12T00:19:25.205Z,51.80
2023-05-12T00:20:25.371Z,50.00
2023-05-12T00:21:25.684Z,51.00
2023-05-12T00:22:26.031Z,51.00
2023-05-12T00:23:26.330Z,60.70
2023-05-12T00:24:26.618Z,55.30
2023-05-12T00:25:26.980Z,48.60
2023-05-12T00:26:27.270Z,52.40
2023-05-12T00:27:27.602Z,51.00
2023-05-12T00:28:27.921Z,51.30
2023-05-12T00:29:28.213Z,47.10
2023-05-12T00:30:28.501Z,47.80
2023-05-12T00:31:28.837Z,51.90
2023-05-12T00:32:29.144Z,46.80
2023-05-12T00:33:29.396Z,53.60
2023-05-12T00:34:29.664Z,49.70
2023-05-12T00:35:30.006Z,47.20
2023-05-12T00:36:30.278Z,51.40
2023-05-12T00:37:30.601Z,52.60
2023-05-12T00:38:30.921Z,49.60
2023-05-12T00:39:31.236Z,49.00
2023-05-12T00:40:31.566Z,59.60
2023-05-12T00:41:31.874Z,52.90
2023-05-12T00:42:32.232Z,48.50
2023-05-12T00:43:32.448Z,53.20
2023-05-12T00:44:32.746Z,49.40
2023-05-12T00:45:33.099Z,47.80
2023-05-12T00:46:33.439Z,60.80
2023-05-12T00:47:33.769Z,46.20
2023-05-12T00:48:34.048Z,56.20
2023-05-12T00:49:34.390Z,49.60
2023-05-12T00:50:34.704Z,47.70
2023-05-12T00:51:35.038Z,48.00
2023-05-12T00:52:35.288Z,44.80
2023-05-12T00:53:48.191Z,52.70
2023-05-12T00:54:36.831Z,49.70
2023-05-12T00:55:36.134Z,43.10
2023-05-12T00:56:36.446Z,44.90
2023-05-12T00:57:36.712Z,51.80
2023-05-12T00:58:37.000Z,46.40
2023-05-12T00:59:37.346Z,54.60
2023-05-12T01:00:37.672Z,57.40
2023-05-12T01:01:38.057Z,50.50
2023-05-12T01:02:38.220Z,52.60
2023-05-12T01:03:38.531Z,46.30
2023-05-12T01:04:38.817Z,56.20
2023-05-12T01:05:39.142Z,54.10
2023-05-12T01:06:39.451Z,58.00
2023-05-12T01:07:39.750Z,51.40
2023-05-12T01:08:40.090Z,46.90
2023-05-12T01:09:40.404Z,47.90
2023-05-12T01:10:40.734Z,49.40
2023-05-12T01:11:41.050Z,48.00
2023-05-12T01:12:41.392Z,45.40
2023-05-12T01:13:41.750Z,49.30
2023-05-12T01:14:42.042Z,57.40
2023-05-12T01:15:42.381Z,44.60
2023-05-12T01:16:42.702Z,44.60
2023-05-12T01:17:43.232Z,42.30
2023-05-12T01:18:43.391Z,45.10
2023-05-12T01:19:43.554Z,50.20
2023-05-12T01:20:43.863Z,45.60
2023-05-12T01:21:44.155Z,57.70
2023-05-12T01:22:44.427Z,48.50
2023-05-12T01:23:44.727Z,47.20
2023-05-12T01:24:45.008Z,48.90
2023-05-12T01:25:45.298Z,51.60
2023-05-12T01:26:45.590Z,41.50
2023-05-12T01:27:45.901Z,41.10
2023-05-12T01:28:46.225Z,36.80
2023-05-12T01:29:46.538Z,45.60
2023-05-12T01:30:46.831Z,41.90
2023-05-12T01:31:47.137Z,38.50
2023-05-12T01:32:47.488Z,39.90
2023-05-12T01:33:47.776Z,34.40
2023-05-12T01:34:48.079Z,40.40
2023-05-12T01:35:48.378Z,39.20
2023-05-12T01:36:48.703Z,37.40
2023-05-12T01:37:48.992Z,48.30
2023-05-12T01:38:49.309Z,37.60
2023-05-12T01:39:49.614Z,44.50
2023-05-12T01:40:49.937Z,39.60
2023-05-12T01:41:50.219Z,40.60
2023-05-12T01:42:50.525Z,36.20
2023-05-12T01:43:50.818Z,39.90
2023-05-12T01:44:51.124Z,38.90
2023-05-12T01:45:51.433Z,42.40
2023-05-12T01:46:51.809Z,36.80
2023-05-12T01:47:52.147Z,47.10
2023-05-12T01:48:52.403Z,37.50
2023-05-12T01:49:52.715Z,35.50
2023-05-12T01:50:53.036Z,39.40
2023-05-12T01:51:53.327Z,34.70
2023-05-12T01:52:53.682Z,34.40
2023-05-12T01:53:54.033Z,37.50
2023-05-12T01:54:54.278Z,40.10
2023-05-12T01:55:54.616Z,38.60
2023-05-12T01:56:54.920Z,43.60
2023-05-12T01:57:55.237Z,38.50
2023-05-12T01:58:55.563Z,35.60
2023-05-12T01:59:55.815Z,37.90
2023-05-12T02:00:56.152Z,35.30
2023-05-12T02:01:56.472Z,39.30
2023-05-12T02:02:56.862Z,36.40
2023-05-12T02:03:57.190Z,39.80
2023-05-12T02:04:57.345Z,38.10
2023-05-12T02:05:57.638Z,35.60
2023-05-12T02:06:57.933Z,37.80
2023-05-12T02:07:58.219Z,36.70
2023-05-12T02:08:58.498Z,34.90
2023-05-12T02:09:58.858Z,38.40
2023-05-12T02:10:59.148Z,37.30
2023-05-12T02:11:59.467Z,39.70
2023-05-12T02:12:59.755Z,30.40
2023-05-12T02:14:00.074Z,36.80
2023-05-12T02:15:00.383Z,36.50
2023-05-12T02:16:00.674Z,36.80
2023-05-12T02:17:00.986Z,35.10
2023-05-12T02:18:01.296Z,40.70
2023-05-12T02:19:01.772Z,33.70
2023-05-12T02:20:01.865Z,33.10
2023-05-12T02:21:02.183Z,32.40
2023-05-12T02:22:02.496Z,33.30
2023-05-12T02:23:02.819Z,32.40
2023-05-12T02:24:03.111Z,33.40
2023-05-12T02:25:03.471Z,32.60
2023-05-12T02:26:03.770Z,32.30
2023-05-12T02:27:04.059Z,44.20
2023-05-12T02:28:04.357Z,48.40
2023-05-12T02:29:04.700Z,48.50
2023-05-12T02:30:04.961Z,50.90
2023-05-12T02:31:05.241Z,39.60
2023-05-12T02:32:05.676Z,44.50
2023-05-12T02:33:05.910Z,47.40
2023-05-12T02:34:06.837Z,49.20
2023-05-12T02:35:06.455Z,47.20
2023-05-12T02:36:06.729Z,42.90
2023-05-12T02:37:07.049Z,37.10
2023-05-12T02:38:07.380Z,39.30
2023-05-12T02:39:07.741Z,38.40
2023-05-12T02:40:08.059Z,36.30
2023-05-12T02:41:08.346Z,35.10
2023-05-12T02:42:08.644Z,38.00
2023-05-12T02:43:08.955Z,37.70
2023-05-12T02:44:09.249Z,43.70
2023-05-12T02:45:09.523Z,44.90
2023-05-12T02:46:09.880Z,34.30
2023-05-12T02:47:10.173Z,39.20
2023-05-12T02:48:10.483Z,35.20
2023-05-12T02:49:10.769Z,35.10
2023-05-12T02:50:11.054Z,36.40
2023-05-12T02:51:11.369Z,55.30
2023-05-12T02:52:11.642Z,41.80
2023-05-12T02:53:18.982Z,41.70
2023-05-12T02:54:13.962Z,46.30
2023-05-12T02:55:12.539Z,39.10
2023-05-12T02:56:14.484Z,33.80
2023-05-12T02:57:13.073Z,35.20
2023-05-12T02:58:13.431Z,47.80
2023-05-12T02:59:13.747Z,44.30
2023-05-12T03:00:14.054Z,35.20
2023-05-12T03:01:14.369Z,38.10
2023-05-12T03:02:14.679Z,35.00
2023-05-12T03:03:15.088Z,38.50
2023-05-12T03:04:15.221Z,37.90
2023-05-12T03:05:15.520Z,44.10
2023-05-12T03:06:15.870Z,42.90
2023-05-12T03:07:16.173Z,55.30
2023-05-12T03:08:16.493Z,62.20
2023-05-12T03:09:16.793Z,63.30
2023-05-12T03:11:17.399Z,50.60
2023-05-12T03:12:17.675Z,52.60
2023-05-12T03:13:17.998Z,53.60
2023-05-12T03:14:18.249Z,68.20
2023-05-12T03:15:18.585Z,59.60
2023-05-12T03:16:19.751Z,59.80
2023-05-12T03:17:19.338Z,58.80
2023-05-12T03:18:19.673Z,48.90
2023-05-12T03:19:19.806Z,43.80
2023-05-12T03:20:20.310Z,43.40
2023-05-12T03:21:20.490Z,39.50
2023-05-12T03:22:20.758Z,39.10
2023-05-12T03:23:21.062Z,38.60
2023-05-12T03:24:21.407Z,32.80
2023-05-12T03:25:21.649Z,32.00
2023-05-12T03:26:21.948Z,30.30
2023-05-12T03:27:22.221Z,27.80
2023-05-12T03:28:22.554Z,30.80
2023-05-12T03:29:22.872Z,27.50
2023-05-12T03:30:23.166Z,33.80
2023-05-12T03:31:23.583Z,29.60
2023-05-12T03:32:23.739Z,29.40
2023-05-12T03:33:24.005Z,30.80
2023-05-12T03:34:24.388Z,29.80
2023-05-12T03:35:24.633Z,35.70
2023-05-12T03:36:24.956Z,39.40
2023-05-12T03:37:25.272Z,35.50
2023-05-12T03:38:25.596Z,36.50
2023-05-12T03:39:25.894Z,33.00
2023-05-12T03:40:26.244Z,33.50
2023-05-12T03:41:26.441Z,36.10
2023-05-12T03:42:26.781Z,35.30
2023-05-12T03:43:27.049Z,40.00
2023-05-12T03:44:27.333Z,30.60
2023-05-12T03:45:27.659Z,32.80
2023-05-12T03:46:28.079Z,31.00
2023-05-12T03:47:29.327Z,33.20
2023-05-12T03:48:28.666Z,39.30
2023-05-12T03:49:28.806Z,40.00
2023-05-12T03:50:29.000Z,38.60
2023-05-12T03:51:29.351Z,33.10
2023-05-12T03:52:29.579Z,28.00
2023-05-12T03:53:29.947Z,33.20
2023-05-12T03:54:30.137Z,38.70
2023-05-12T03:55:30.469Z,34.10
2023-05-12T03:56:30.818Z,31.70
2023-05-12T03:57:31.041Z,32.70
2023-05-12T03:58:31.277Z,38.20
2023-05-12T03:59:31.614Z,33.80
2023-05-12T04:00:31.814Z,31.90
2023-05-12T04:01:32.197Z,32.70
2023-05-12T04:02:32.630Z,30.30
2023-05-12T04:03:32.901Z,32.20
2023-05-12T04:04:33.110Z,39.70
2023-05-12T04:05:33.453Z,42.10
2023-05-12T04:06:33.671Z,38.00
2023-05-12T04:07:34.016Z,34.20
2023-05-12T04:08:34.368Z,33.80
2023-05-12T04:09:34.620Z,34.80
2023-05-12T04:10:34.917Z,33.00
2023-05-12T04:11:35.150Z,32.40
2023-05-12T04:14:56.468Z,26.10
2023-05-12T04:15:56.641Z,26.40
2023-05-12T04:16:57.032Z,25.50
2023-05-12T04:17:59.993Z,23.40
2023-05-12T04:18:57.614Z,22.70
2023-05-12T04:19:57.770Z,20.50
2023-05-12T04:20:58.134Z,20.70
2023-05-12T04:21:58.343Z,21.60
2023-05-12T04:22:58.682Z,20.20
2023-05-12T04:23:59.038Z,17.00
2023-05-12T04:24:59.251Z,20.70
2023-05-12T04:25:59.614Z,19.20
2023-05-12T04:26:59.806Z,16.90
2023-05-12T04:28:00.148Z,18.00
2023-05-12T04:29:00.450Z,16.70
2023-05-12T04:30:08.266Z,16.50
2023-05-12T04:31:01.076Z,15.70
2023-05-12T04:32:01.464Z,15.50
2023-05-12T04:33:01.751Z,17.00
2023-05-12T04:34:02.073Z,16.00
2023-05-12T04:35:02.327Z,19.00
2023-05-12T04:36:02.579Z,15.20
2023-05-12T04:37:02.917Z,14.90
2023-05-12T04:38:03.102Z,15.40
2023-05-12T04:39:03.499Z,16.40
2023-05-12T04:40:03.773Z,14.90
2023-05-12T04:41:04.149Z,14.50
2023-05-12T04:42:04.427Z,17.10
2023-05-12T04:43:04.777Z,15.70
2023-05-12T04:44:05.036Z,15.10
2023-05-12T04:45:05.228Z,15.50
2023-05-12T04:46:05.473Z,13.80
2023-05-12T04:47:05.796Z,11.80
2023-05-12T04:48:06.074Z,14.80
2023-05-12T04:49:06.466Z,13.30
2023-05-12T04:50:06.617Z,10.00
2023-05-12T04:51:06.957Z,10.10
2023-05-12T04:52:07.175Z,10.30
2023-05-12T04:53:07.512Z,8.40
2023-05-12T04:54:07.829Z,10.10
2023-05-12T04:55:08.162Z,9.70
2023-05-12T04:56:08.434Z,8.60
2023-05-12T04:57:08.734Z,9.70
2023-05-12T04:58:09.020Z,6.50
2023-05-12T04:59:09.366Z,6.00
2023-05-12T05:00:09.619Z,5.80
2023-05-12T05:01:10.013Z,7.00
2023-05-12T05:02:10.238Z,6.90
2023-05-12T05:03:10.582Z,5.90
2023-05-12T05:04:10.885Z,5.30
2023-05-12T05:05:11.186Z,5.60
2023-05-12T05:06:11.488Z,6.70
2023-05-12T05:07:11.786Z,5.50
2023-05-12T05:08:12.125Z,5.80
2023-05-12T05:09:12.456Z,4.30
2023-05-12T05:10:12.729Z,6.50
2023-05-12T05:11:13.085Z,5.90
2023-05-12T05:12:13.360Z,5.10
2023-05-12T05:13:13.771Z,4.50
2023-05-12T05:14:13.923Z,6.80
2023-05-12T05:15:14.244Z,7.30
2023-05-12T05:16:14.679Z,4.70
2023-05-12T05:17:14.814Z,4.40
2023-05-12T05:18:15.113Z,3.80
2023-05-12T05:19:23.106Z,4.20
2023-05-12T05:20:16.691Z,6.20
2023-05-12T05:21:15.885Z,4.50
2023-05-12T05:22:16.170Z,4.40
2023-05-12T05:23:16.424Z,4.70
2023-05-12T05:24:16.737Z,5.20
2023-05-12T05:25:17.292Z,6.20
2023-05-12T05:26:17.343Z,4.00
2023-05-12T05:27:17.590Z,3.80
2023-05-12T05:28:17.901Z,4.60
2023-05-12T05:29:18.281Z,5.30
2023-05-12T05:30:18.522Z,4.90
2023-05-12T05:31:18.936Z,4.60
2023-05-12T05:32:19.156Z,5.40
2023-05-12T05:33:19.490Z,4.50
2023-05-12T05:34:19.953Z,3.80
2023-05-12T05:35:20.350Z,4.90
2023-05-12T05:36:20.412Z,3.90
2023-05-12T05:37:20.713Z,3.90
2023-05-12T05:38:21.030Z,3.60
2023-05-12T05:39:21.320Z,3.90
2023-05-12T05:40:21.632Z,4.40
2023-05-12T05:41:21.952Z,4.60
2023-05-12T05:42:22.301Z,5.60
2023-05-12T05:43:22.648Z,5.10
2023-05-12T05:44:22.936Z,4.50
2023-05-12T05:45:23.286Z,8.10
2023-05-12T05:46:23.650Z,7.40
2023-05-12T05:47:23.941Z,5.50
2023-05-12T05:48:24.129Z,6.60
2023-05-12T05:49:24.440Z,4.70
2023-05-12T05:50:24.784Z,5.90
2023-05-12T05:51:25.093Z,4.90
2023-05-12T05:52:25.388Z,8.50
2023-05-12T05:53:25.691Z,6.10
2023-05-12T05:54:25.973Z,5.20
2023-05-12T05:55:26.305Z,4.90
2023-05-12T05:56:26.615Z,6.50
2023-05-12T05:57:26.890Z,8.70
2023-05-12T05:58:27.199Z,4.60
2023-05-12T05:59:27.520Z,6.20
2023-05-12T06:00:27.789Z,8.40
2023-05-12T06:01:28.118Z,4.40
2023-05-12T06:02:28.558Z,4.90
2023-05-12T06:03:28.834Z,5.60
2023-05-12T06:04:29.222Z,6.10
2023-05-12T06:05:29.368Z,5.30
2023-05-12T06:06:29.681Z,6.20
2023-05-12T06:07:29.983Z,7.40
2023-05-12T06:08:30.283Z,5.30
2023-05-12T06:09:30.603Z,4.90
2023-05-12T06:10:30.909Z,8.40
2023-05-12T06:11:31.237Z,5.70
2023-05-12T06:12:31.558Z,4.50
2023-05-12T06:13:31.869Z,5.70
2023-05-12T06:14:32.179Z,4.90
2023-05-12T06:15:32.493Z,4.80
2023-05-12T06:16:32.842Z,4.40
2023-05-12T06:17:33.193Z,7.10
2023-05-12T06:18:33.525Z,5.60
2023-05-12T06:19:33.820Z,6.20
2023-05-12T06:20:34.144Z,5.60
2023-05-12T06:21:34.459Z,6.30
2023-05-12T06:22:34.848Z,4.80
2023-05-12T06:23:35.096Z,4.30
2023-05-12T06:24:35.404Z,6.90
2023-05-12T06:25:35.738Z,4.40
2023-05-12T06:26:36.066Z,4.70
2023-05-12T06:27:36.357Z,6.30
2023-05-12T06:28:36.720Z,5.30
2023-05-12T06:29:36.999Z,8.00
2023-05-12T06:30:37.326Z,3.30
2023-05-12T06:31:37.724Z,3.70
2023-05-12T06:32:37.956Z,4.80
2023-05-12T06:33:38.215Z,5.90
2023-05-12T06:34:38.505Z,4.10
2023-05-12T06:35:38.807Z,4.10
2023-05-12T06:36:39.218Z,4.30
2023-05-12T06:37:39.386Z,5.40
2023-05-12T06:38:39.675Z,4.70
2023-05-12T06:39:39.977Z,4.10
2023-05-12T06:40:40.292Z,4.60
2023-05-12T06:41:40.632Z,4.00
2023-05-12T06:42:40.939Z,4.30
2023-05-12T06:43:41.230Z,5.40
2023-05-12T06:44:42.489Z,3.50
2023-05-12T06:45:41.866Z,4.00
2023-05-12T06:46:42.232Z,4.60
2023-05-12T06:47:42.557Z,4.70
2023-05-12T06:48:42.887Z,5.80
2023-05-12T06:49:43.212Z,3.80
2023-05-12T06:50:43.396Z,5.80
2023-05-12T06:51:43.727Z,6.20
2023-05-12T06:52:44.045Z,3.70
2023-05-12T06:53:44.355Z,7.30
2023-05-12T06:54:44.676Z,6.60
2023-05-12T06:55:44.993Z,5.60
2023-05-12T06:56:45.323Z,4.20
2023-05-12T06:57:45.717Z,4.70
2023-05-12T06:58:45.969Z,4.40
2023-05-12T06:59:46.262Z,3.90
2023-05-12T07:00:46.583Z,4.80
2023-05-12T07:01:46.918Z,6.80
2023-05-12T07:02:47.279Z,6.70
2023-05-12T07:03:47.562Z,5.60
2023-05-12T07:04:47.855Z,3.20
2023-05-12T07:05:48.177Z,5.10
2023-05-12T07:06:48.456Z,3.60
2023-05-12T07:07:48.789Z,4.50
2023-05-12T07:08:49.026Z,4.20
2023-05-12T07:09:49.345Z,4.00
2023-05-12T07:10:49.680Z,5.00
2023-05-12T07:11:50.037Z,5.20
2023-05-12T07:12:50.352Z,4.30
2023-05-12T07:13:50.648Z,6.20
2023-05-12T07:14:50.969Z,2.50
2023-05-12T07:15:51.332Z,3.90
2023-05-12T07:16:51.662Z,2.50
2023-05-12T07:17:52.009Z,4.00
2023-05-12T07:18:52.331Z,2.80
2023-05-12T07:19:52.581Z,1.90
2023-05-12T07:20:52.730Z,3.60
2023-05-12T07:21:53.067Z,4.30
2023-05-12T07:22:53.376Z,2.60
2023-05-12T07:23:53.662Z,3.40
2023-05-12T07:24:54.007Z,1.90
2023-05-12T07:26:03.417Z,3.40
2023-05-12T07:29:15.532Z,2.70
2023-05-12T07:32:39.220Z,3.60
2023-05-12T07:33:39.474Z,3.10
2023-05-12T07:34:39.832Z,2.50
2023-05-12T07:35:40.097Z,3.40
2023-05-12T07:36:40.419Z,2.40
2023-05-12T07:37:40.710Z,3.20
2023-05-12T07:38:41.124Z,2.50
2023-05-12T07:39:41.270Z,3.00
2023-05-12T07:40:41.558Z,3.40
2023-05-12T07:41:41.871Z,2.90
2023-05-12T07:42:42.176Z,2.50
2023-05-12T07:43:42.455Z,2.10
2023-05-12T07:44:42.766Z,2.30
2023-05-12T07:45:43.085Z,5.60
2023-05-12T07:46:43.439Z,2.50
2023-05-12T07:47:43.805Z,4.50
2023-05-12T07:48:44.071Z,3.60
2023-05-12T07:49:51.455Z,2.50
2023-05-12T07:50:44.686Z,3.50
2023-05-12T07:51:45.005Z,2.50
2023-05-12T07:52:45.309Z,2.70
2023-05-12T07:53:45.617Z,2.50
2023-05-12T07:54:45.940Z,2.30
2023-05-12T07:55:46.259Z,2.80
2023-05-12T07:56:46.567Z,3.60
2023-05-12T07:57:46.892Z,2.40
2023-05-12T07:58:47.626Z,2.70
2023-05-12T07:59:47.516Z,2.60
2023-05-12T08:00:47.818Z,2.50
2023-05-12T08:01:48.159Z,2.70
2023-05-12T08:02:48.565Z,3.10
2023-05-12T08:03:48.887Z,2.60
2023-05-12T08:04:49.123Z,3.30
2023-05-12T08:05:49.379Z,4.90
2023-05-12T08:06:49.727Z,3.00
2023-05-12T08:07:50.033Z,3.60
2023-05-12T08:08:50.332Z,3.20
2023-05-12T08:09:51.835Z,2.70
2023-05-12T08:10:51.042Z,5.80
2023-05-12T08:11:51.824Z,4.40
2023-05-12T08:12:51.504Z,2.50
2023-05-12T08:13:51.813Z,2.60
2023-05-12T08:14:52.330Z,2.90
2023-05-12T08:15:52.612Z,3.60
2023-05-12T08:16:52.862Z,3.80
2023-05-12T08:17:53.119Z,3.70
2023-05-12T08:18:53.709Z,3.60
2023-05-12T08:19:53.639Z,2.70
2023-05-12T08:20:53.990Z,1.70
2023-05-12T08:21:54.197Z,1.90
2023-05-12T08:22:54.549Z,1.70
2023-05-12T08:23:54.875Z,2.60
2023-05-12T08:24:55.469Z,1.80
2023-05-12T08:25:55.534Z,2.00
2023-05-12T08:26:55.869Z,2.90
2023-05-12T08:27:56.248Z,2.60
2023-05-12T08:28:56.544Z,1.70
2023-05-12T08:29:57.024Z,2.60
2023-05-12T08:30:57.183Z,2.80
2023-05-12T08:31:57.375Z,3.20
2023-05-12T08:32:57.823Z,2.00
2023-05-12T08:34:08.980Z,4.70
2023-05-12T08:34:59.235Z,1.90
2023-05-12T08:35:58.583Z,3.50
2023-05-12T08:36:58.961Z,3.20
2023-05-12T08:37:59.349Z,1.40
2023-05-12T08:41:20.454Z,1.50
2023-05-12T08:42:20.775Z,1.80
2023-05-12T08:43:21.008Z,1.10
2023-05-12T08:44:21.324Z,2.10
2023-05-12T08:45:21.777Z,2.40
2023-05-12T08:46:22.013Z,2.20
2023-05-12T08:47:22.216Z,2.20
2023-05-12T08:48:22.558Z,1.80
2023-05-12T08:49:22.943Z,1.30
2023-05-12T08:50:23.492Z,1.70
2023-05-12T08:51:23.579Z,1.20
2023-05-12T08:52:23.906Z,1.00
2023-05-12T08:53:24.128Z,1.80
2023-05-12T08:54:24.273Z,1.20
2023-05-12T08:55:28.544Z,2.70
2023-05-12T08:57:26.502Z,1.90
2023-05-12T08:58:37.531Z,2.90
2023-05-12T08:59:26.708Z,1.50
2023-05-12T09:00:26.235Z,1.20
2023-05-12T09:01:26.404Z,1.20
2023-05-12T09:02:29.362Z,1.10
2023-05-12T09:03:28.116Z,2.80
2023-05-12T09:04:27.353Z,2.00
2023-05-12T09:05:27.619Z,1.70
2023-05-12T09:06:27.819Z,3.70
2023-05-12T09:07:28.141Z,1.60
2023-05-12T09:08:28.447Z,2.00
2023-05-12T09:09:28.762Z,1.00
2023-05-12T09:11:29.296Z,1.20
2023-05-12T09:12:29.454Z,1.70
2023-05-12T09:13:29.759Z,1.70
2023-05-12T09:14:30.059Z,0.90
2023-05-12T09:15:30.395Z,1.60
2023-05-12T09:16:30.806Z,0.90
2023-05-12T09:17:31.072Z,2.30
2023-05-12T09:18:31.196Z,0.80
2023-05-12T09:19:31.477Z,1.70
2023-05-12T09:20:32.298Z,2.70
2023-05-12T09:21:32.054Z,3.30
2023-05-12T09:22:32.408Z,2.80
2023-05-12T09:23:32.729Z,2.20
2023-05-12T09:24:33.066Z,0.90
2023-05-12T09:25:33.365Z,1.30
2023-05-12T09:26:33.696Z,2.30
2023-05-12T09:27:34.007Z,1.40
2023-05-12T09:28:34.316Z,2.30
2023-05-12T09:29:45.153Z,1.50
2023-05-12T09:30:35.909Z,1.70
2023-05-12T09:31:35.267Z,2.40
2023-05-12T09:32:35.595Z,2.50
2023-05-12T09:33:35.925Z,2.30
2023-05-12T09:34:36.226Z,1.80
2023-05-12T09:35:36.635Z,2.40
2023-05-12T09:36:36.914Z,1.50
2023-05-12T09:37:37.240Z,1.40
2023-05-12T09:38:37.513Z,2.20
2023-05-12T09:39:37.859Z,2.80
2023-05-12T09:40:38.066Z,1.60
2023-05-12T09:41:38.438Z,4.10
2023-05-12T09:42:38.664Z,1.80
2023-05-12T09:43:38.965Z,1.70
2023-05-12T09:44:39.395Z,3.10
2023-05-12T09:45:39.633Z,10.60
2023-05-12T09:46:39.987Z,11.80
2023-05-12T09:47:40.315Z,8.70
2023-05-12T09:48:40.619Z,3.20
2023-05-12T09:49:41.931Z,6.10
2023-05-12T09:50:47.398Z,3.00
2023-05-12T09:51:42.550Z,7.10
2023-05-12T09:52:41.853Z,9.90
2023-05-12T09:53:42.014Z,7.00
2023-05-12T09:54:42.360Z,4.30
2023-05-12T09:55:42.674Z,6.50
2023-05-12T09:56:42.992Z,5.30
2023-05-12T09:57:43.384Z,2.70
2023-05-12T09:58:43.620Z,3.80
2023-05-12T09:59:44.053Z,4.20
2023-05-12T10:01:12.806Z,2.60
2023-05-12T10:01:45.494Z,5.10
2023-05-12T10:02:44.735Z,5.30
2023-05-12T10:03:45.026Z,4.20
2023-05-12T10:04:45.440Z,2.90
2023-05-12T10:05:45.588Z,3.40
2023-05-12T10:06:45.997Z,4.00
2023-05-12T10:07:46.258Z,2.90
2023-05-12T10:08:46.533Z,3.20
2023-05-12T10:09:46.882Z,4.40
2023-05-12T10:10:47.217Z,4.40
2023-05-12T10:11:47.540Z,5.80
2023-05-12T10:12:47.818Z,5.80
2023-05-12T10:13:48.139Z,6.70
2023-05-12T10:14:48.501Z,5.60
2023-05-12T10:15:48.841Z,5.50
2023-05-12T10:16:49.180Z,7.50
2023-05-12T10:17:51.480Z,9.20
2023-05-12T10:18:49.801Z,3.20
2023-05-12T10:19:51.107Z,4.00
2023-05-12T10:20:50.359Z,5.80
2023-05-12T10:21:50.541Z,3.90
2023-05-12T10:22:50.896Z,3.50
2023-05-12T10:23:51.155Z,5.10
2023-05-12T10:24:51.477Z,4.80
2023-05-12T10:25:51.790Z,3.90
2023-05-12T10:26:52.099Z,4.10
2023-05-12T10:27:52.489Z,3.40
2023-05-12T10:28:52.725Z,4.90
2023-05-12T10:29:53.696Z,5.80
2023-05-12T10:30:53.310Z,7.90
2023-05-12T10:31:53.692Z,2.00
2023-05-12T10:32:54.058Z,5.30
2023-05-12T10:33:54.343Z,4.30
2023-05-12T10:34:54.975Z,4.00
2023-05-12T10:35:54.919Z,5.60
2023-05-12T10:36:55.305Z,2.60
2023-05-12T10:37:56.468Z,3.50
2023-05-12T10:38:55.929Z,2.90
2023-05-12T10:39:56.258Z,4.60
2023-05-12T10:40:56.586Z,5.00
2023-05-12T10:41:56.938Z,5.10
2023-05-12T10:42:57.285Z,4.70
2023-05-12T10:43:57.509Z,4.00
2023-05-12T10:44:57.808Z,5.90
2023-05-12T10:45:58.141Z,4.10
2023-05-12T10:46:58.435Z,2.40
2023-05-12T10:47:58.734Z,1.80
2023-05-12T10:48:58.994Z,3.30
2023-05-12T10:49:59.361Z,2.50
2023-05-12T10:50:59.638Z,3.50
2023-05-12T10:51:59.938Z,3.00
2023-05-12T10:53:00.292Z,4.00
2023-05-12T10:54:00.573Z,2.30
2023-05-12T10:55:00.963Z,4.00
2023-05-12T10:56:01.313Z,3.70
2023-05-12T10:57:01.561Z,2.90
2023-05-12T10:58:01.935Z,2.20
2023-05-12T10:59:02.093Z,2.90
2023-05-12T11:00:03.598Z,3.60
2023-05-12T11:01:02.824Z,8.20
2023-05-12T11:02:05.116Z,2.80
2023-05-12T11:03:09.872Z,6.20
2023-05-12T11:04:04.452Z,6.00
2023-05-12T11:05:04.380Z,3.40
2023-05-12T11:06:04.840Z,3.40
2023-05-12T11:07:04.576Z,7.10
2023-05-12T11:08:05.090Z,3.30
2023-05-12T11:09:05.098Z,2.80
2023-05-12T11:10:05.920Z,3.20
2023-05-12T11:11:06.354Z,1.70
2023-05-12T11:12:06.766Z,4.20
2023-05-12T11:13:05.734Z,3.60
2023-05-12T11:14:06.055Z,2.30
2023-05-12T11:15:06.536Z,3.00
2023-05-12T11:16:06.749Z,3.60
2023-05-12T11:17:06.975Z,1.90
2023-05-12T11:18:07.277Z,3.90
2023-05-12T11:19:07.710Z,2.80
2023-05-12T11:20:07.886Z,1.90
2023-05-12T11:21:08.172Z,2.20
2023-05-12T11:22:08.515Z,5.00
2023-05-12T11:23:08.824Z,3.60
2023-05-12T11:24:11.870Z,3.30
2023-05-12T11:25:09.404Z,2.00
2023-05-12T11:26:09.709Z,3.00
2023-05-12T11:27:10.049Z,2.40
2023-05-12T11:28:10.312Z,2.10
2023-05-12T11:29:10.660Z,2.60
2023-05-12T11:30:10.974Z,2.10
2023-05-12T11:31:11.261Z,1.80
2023-05-12T11:32:11.674Z,4.00
2023-05-12T11:33:11.981Z,3.70
2023-05-12T11:34:13.662Z,5.00
2023-05-12T11:35:12.557Z,4.60
2023-05-12T11:36:12.883Z,3.40
2023-05-12T11:37:13.185Z,3.80
2023-05-12T11:38:13.533Z,3.60
2023-05-12T11:39:13.730Z,4.70
2023-05-12T11:40:14.065Z,1.50
2023-05-12T11:41:14.340Z,2.30
2023-05-12T11:42:16.792Z,2.60
2023-05-12T11:43:14.948Z,2.40
2023-05-12T11:44:15.216Z,4.20
2023-05-12T11:45:15.542Z,3.10
2023-05-12T11:48:36.770Z,2.40
2023-05-12T11:49:37.072Z,2.40
2023-05-12T11:50:37.591Z,5.50
2023-05-12T11:51:37.710Z,4.10
2023-05-12T11:52:38.007Z,10.70
2023-05-12T11:53:38.330Z,4.40
2023-05-12T11:54:38.636Z,3.60
2023-05-12T11:55:38.984Z,4.80
2023-05-12T11:56:39.309Z,2.70
2023-05-12T11:57:39.636Z,3.00
2023-05-12T11:58:39.949Z,3.90
2023-05-12T11:59:40.278Z,2.60
2023-05-12T12:00:40.656Z,4.40
2023-05-12T12:01:40.903Z,2.10
2023-05-12T12:02:41.328Z,4.50
2023-05-12T12:03:41.505Z,3.60
2023-05-12T12:04:43.046Z,4.30
2023-05-12T12:05:41.944Z,3.30
2023-05-12T12:06:42.356Z,3.60
2023-05-12T12:07:42.547Z,3.90
2023-05-12T12:08:42.895Z,4.10
2023-05-12T12:09:43.282Z,3.10
2023-05-12T12:10:43.427Z,4.20
2023-05-12T12:11:43.830Z,3.50
2023-05-12T12:12:44.448Z,4.90
2023-05-12T12:13:44.316Z,3.80
2023-05-12T12:14:44.603Z,3.40
2023-05-12T12:15:44.931Z,3.40
2023-05-12T12:16:45.211Z,4.10
2023-05-12T12:17:45.631Z,4.20
2023-05-12T12:18:45.892Z,2.70
2023-05-12T12:19:46.199Z,2.50
2023-05-12T12:20:46.705Z,2.60
2023-05-12T12:21:46.853Z,5.90
2023-05-12T12:22:47.114Z,2.90
2023-05-12T12:23:51.477Z,5.20
2023-05-12T12:24:47.658Z,4.80
2023-05-12T12:25:47.967Z,3.10
2023-05-12T12:26:48.270Z,2.10
2023-05-12T12:27:48.650Z,4.40
2023-05-12T12:28:48.969Z,3.70
2023-05-12T12:29:49.169Z,2.80
2023-05-12T12:30:49.624Z,4.30
2023-05-12T12:31:49.859Z,5.30
2023-05-12T12:32:50.213Z,3.60
2023-05-12T12:33:50.366Z,3.70
2023-05-12T12:34:50.550Z,2.60
2023-05-12T12:35:50.891Z,4.30
2023-05-12T12:36:51.295Z,3.40
2023-05-12T12:37:51.546Z,4.60
2023-05-12T12:38:51.907Z,2.60
2023-05-12T12:39:52.250Z,4.20
2023-05-12T12:40:52.548Z,2.50
2023-05-12T12:41:52.861Z,4.70
2023-05-12T12:42:53.429Z,4.40
2023-05-12T12:43:53.428Z,3.30
2023-05-12T12:44:53.720Z,2.70
2023-05-12T12:45:54.090Z,4.60
2023-05-12T12:46:54.384Z,2.50
2023-05-12T12:47:54.925Z,4.70
2023-05-12T12:48:55.080Z,2.70
2023-05-12T12:49:55.515Z,4.30
2023-05-12T12:50:55.780Z,5.90
2023-05-12T12:51:55.911Z,4.60
2023-05-12T12:52:56.323Z,3.40
2023-05-12T12:53:56.574Z,5.20
2023-05-12T12:54:56.993Z,3.40
2023-05-12T12:55:57.248Z,4.40
2023-05-12T12:56:57.465Z,4.10
2023-05-12T12:57:57.738Z,4.90
2023-05-12T12:58:58.162Z,5.60
2023-05-12T12:59:58.374Z,6.90
2023-05-12T13:00:58.733Z,5.10
2023-05-12T13:01:59.157Z,4.90
2023-05-12T13:02:59.379Z,5.30
2023-05-12T13:03:59.528Z,4.20
2023-05-12T13:04:59.929Z,3.60
2023-05-12T13:06:00.106Z,6.70
2023-05-12T13:07:00.437Z,7.00
2023-05-12T13:08:00.797Z,6.90
2023-05-12T13:09:01.170Z,8.40
2023-05-12T13:10:01.412Z,5.90
2023-05-12T13:11:01.688Z,6.40
2023-05-12T13:12:02.052Z,6.60
2023-05-12T13:13:02.344Z,5.30
2023-05-12T13:14:02.635Z,5.60
2023-05-12T13:15:02.996Z,4.50
2023-05-12T13:16:03.285Z,2.70
2023-05-12T13:17:03.655Z,3.50
2023-05-12T13:18:04.027Z,3.70
2023-05-12T13:19:04.350Z,4.50
2023-05-12T13:20:04.515Z,4.50
2023-05-12T13:21:04.820Z,5.90
2023-05-12T13:22:05.150Z,5.20
2023-05-12T13:23:05.489Z,4.70
2023-05-12T13:24:05.732Z,4.30
2023-05-12T13:25:06.656Z,3.70
2023-05-12T13:26:06.360Z,4.30
2023-05-12T13:27:06.691Z,2.90